Time;durP1;ratioP1;P1;durP2;ratioP2;P2;SDS_P1;SDS_P2;PMS_P1;PMS_P2;Temp;Humidity;BMP_temperature;BMP_pressure;BME280_temperature;BME280_humidity;BME280_pressure;Samples;Min_cycle;Max_cycle;Signal;HPM_P1;HPM_P2
2021/03/01 00:02:20;;;;;;;28.35;16.00;;;;;;;4.37;100.00;102726.34;5186176;28;20379;-80
2021/03/01 00:04:50;;;;;;;26.83;16.23;;;;;;;4.35;100.00;102726.34;5195222;28;20026;-80
2021/03/01 00:07:21;;;;;;;28.05;16.10;;;;;;;4.32;100.00;102733.16;5194051;28;20053;-81
2021/03/01 00:09:51;;;;;;;29.10;16.58;;;;;;;4.34;100.00;102732.34;5197090;28;20033;-81
2021/03/01 00:12:21;;;;;;;29.27;16.73;;;;;;;4.25;100.00;102731.22;5185477;28;20034;-81
2021/03/01 00:14:52;;;;;;;28.70;16.70;;;;;;;4.09;100.00;102729.97;5184888;28;20069;-81
2021/03/01 00:17:22;;;;;;;30.65;16.55;;;;;;;4.35;100.00;102728.03;5185330;28;20525;-80
2021/03/01 00:19:52;;;;;;;28.40;17.05;;;;;;;4.22;100.00;102725.97;5184820;28;20034;-81
2021/03/01 00:22:22;;;;;;;29.80;16.38;;;;;;;4.44;100.00;102726.53;5185850;28;20136;-81
2021/03/01 00:24:53;;;;;;;27.90;15.93;;;;;;;4.21;100.00;102725.13;5184753;28;20049;-80
2021/03/01 00:27:23;;;;;;;28.77;17.05;;;;;;;4.43;100.00;102716.16;5184776;28;20028;-80
2021/03/01 00:29:53;;;;;;;31.60;16.92;;;;;;;4.44;100.00;102721.34;5184202;28;20042;-81
2021/03/01 00:32:24;;;;;;;30.58;17.30;;;;;;;4.45;100.00;102724.84;5184629;28;20092;-81
2021/03/01 00:34:54;;;;;;;31.30;17.23;;;;;;;4.44;100.00;102723.94;5184923;28;20360;-80
2021/03/01 00:37:25;;;;;;;32.13;17.58;;;;;;;4.30;100.00;102704.63;5185184;28;20213;-80
2021/03/01 00:39:55;;;;;;;29.63;17.65;;;;;;;4.45;100.00;102705.00;5185130;28;20029;-79
2021/03/01 00:42:25;;;;;;;29.30;17.05;;;;;;;4.40;100.00;102710.88;5185087;28;20025;-79
2021/03/01 00:44:55;;;;;;;29.77;16.70;;;;;;;4.50;100.00;102707.69;5184986;28;20073;-80
2021/03/01 00:47:26;;;;;;;31.88;17.85;;;;;;;4.37;100.00;102710.81;5185801;28;20030;-80
2021/03/01 00:49:57;;;;;;;29.77;17.27;;;;;;;4.08;100.00;102715.31;5184110;28;20392;-81
2021/03/01 00:52:27;;;;;;;33.92;18.60;;;;;;;3.98;100.00;102713.31;5184106;28;20034;-80
2021/03/01 00:54:57;;;;;;;34.53;19.38;;;;;;;4.13;100.00;102710.25;5182574;28;20028;-80
2021/03/01 00:57:28;;;;;;;34.78;19.17;;;;;;;4.15;100.00;102708.56;5184943;28;20021;-81
2021/03/01 00:59:58;;;;;;;32.35;17.83;;;;;;;4.21;100.00;102698.34;5183932;28;20050;-80
2021/03/01 01:02:28;;;;;;;29.77;16.48;;;;;;;4.34;100.00;102703.00;5184940;28;20026;-79
2021/03/01 01:04:58;;;;;;;30.30;16.48;;;;;;;4.18;100.00;102703.47;5185865;28;20287;-79
2021/03/01 01:07:29;;;;;;;30.15;17.33;;;;;;;4.52;100.00;102703.41;5183733;28;20029;-80
2021/03/01 01:09:59;;;;;;;31.40;16.98;;;;;;;4.53;100.00;102699.97;5184728;28;20057;-80
2021/03/01 01:12:30;;;;;;;30.02;16.70;;;;;;;4.36;100.00;102709.97;5185602;28;20542;-80
2021/03/01 01:15:00;;;;;;;31.52;17.45;;;;;;;4.16;100.00;102706.00;5184848;28;20084;-79
2021/03/01 01:17:31;;;;;;;30.60;17.02;;;;;;;4.18;100.00;102708.63;5184854;28;20032;-81
2021/03/01 01:20:10;;;;;;;27.80;14.98;;;;;;;4.08;100.00;102707.53;5183947;28;20029;-81
2021/03/01 01:22:41;;;;;;;29.67;16.20;;;;;;;4.38;100.00;102708.28;5184944;28;20102;-79
2021/03/01 01:25:13;;;;;;;24.83;14.73;;;;;;;4.40;100.00;102705.72;5185161;28;20460;-81
2021/03/01 01:27:44;;;;;;;27.23;15.35;;;;;;;4.07;100.00;102704.91;5183564;28;20088;-80
2021/03/01 01:30:18;;;;;;;29.25;16.85;;;;;;;4.07;100.00;102704.91;5182859;28;20053;-80
2021/03/01 01:32:49;;;;;;;27.00;15.20;;;;;;;4.28;100.00;102693.38;5183163;28;20040;-78
2021/03/01 01:35:20;;;;;;;28.75;16.30;;;;;;;4.34;100.00;102690.94;5184215;28;20556;-79
2021/03/01 01:37:50;;;;;;;28.30;15.63;;;;;;;4.48;100.00;102699.88;5190590;28;20088;-81
2021/03/01 01:40:22;;;;;;;25.25;14.75;;;;;;;4.27;100.00;102698.53;5188838;28;20862;-81
2021/03/01 01:42:53;;;;;;;26.92;15.75;;;;;;;4.46;100.00;102696.38;5183645;28;20025;-80
2021/03/01 01:45:25;;;;;;;26.70;15.32;;;;;;;4.30;100.00;102696.00;5195598;28;20021;-80
2021/03/01 01:47:56;;;;;;;27.75;15.23;;;;;;;4.28;100.00;102685.59;5192418;28;20018;-80
2021/03/01 01:50:28;;;;;;;27.20;14.73;;;;;;;4.08;100.00;102676.50;5193449;28;20045;-79
2021/03/01 01:52:59;;;;;;;30.05;16.58;;;;;;;4.04;100.00;102687.63;5186359;28;20030;-78
2021/03/01 01:55:29;;;;;;;28.60;16.30;;;;;;;4.14;100.00;102691.28;5198153;28;20021;-81
2021/03/01 01:58:00;;;;;;;28.98;15.68;;;;;;;4.19;100.00;102698.34;5191119;28;20084;-80
2021/03/01 02:00:46;;;;;;;28.13;15.98;;;;;;;4.28;100.00;102695.09;5186548;28;20029;-82
2021/03/01 02:03:38;;;;;;;23.70;14.13;;;;;;;4.23;100.00;102689.81;5195825;28;20029;-80
2021/03/01 02:06:35;;;;;;;28.08;14.50;;;;;;;4.28;100.00;102685.59;5194848;28;20017;-81
2021/03/01 02:09:21;;;;;;;25.20;14.60;;;;;;;4.34;100.00;102692.63;5198865;28;20065;-79
2021/03/01 02:12:17;;;;;;;25.83;14.73;;;;;;;4.29;100.00;102682.16;5188330;28;20092;-80
2021/03/01 02:15:07;;;;;;;23.52;14.65;;;;;;;4.28;100.00;102687.34;5189211;28;20320;-80
2021/03/01 02:17:37;;;;;;;26.00;14.60;;;;;;;4.41;100.00;102681.56;5185759;28;20026;-79
2021/03/01 02:20:11;;;;;;;24.10;14.23;;;;;;;4.30;100.00;102678.75;5189254;28;20017;-80
2021/03/01 02:22:41;;;;;;;24.80;14.30;;;;;;;4.27;100.00;102681.25;5187977;28;20108;-80
2021/03/01 02:25:16;;;;;;;25.42;14.02;;;;;;;4.39;100.00;102686.75;5196424;28;20100;-80
2021/03/01 02:28:07;;;;;;;;;;;;;;;4.40;100.00;102675.53;5210300;23;20034;-77
2021/03/01 02:30:42;;;;;;;21.52;12.90;;;;;;;4.25;100.00;102675.19;5145692;28;19932;-78
2021/03/01 02:33:18;;;;;;;25.67;15.43;;;;;;;4.17;100.00;102671.56;5145689;28;20011;-77
2021/03/01 02:36:05;;;;;;;24.02;14.35;;;;;;;4.16;100.00;102680.13;5143915;28;20035;-77
2021/03/01 02:38:39;;;;;;;27.27;14.80;;;;;;;4.23;100.00;102682.03;5151685;28;20315;-77
2021/03/01 02:41:10;;;;;;;23.60;14.88;;;;;;;4.41;100.00;102672.13;5158811;28;20031;-77
2021/03/01 02:43:42;;;;;;;23.98;14.32;;;;;;;4.39;100.00;102678.06;5152106;28;20023;-76
2021/03/01 02:46:13;;;;;;;23.50;13.50;;;;;;;4.27;100.00;102678.69;5145131;28;20031;-78
2021/03/01 02:48:45;;;;;;;22.02;13.57;;;;;;;4.23;100.00;102676.88;5144585;28;20034;-77
2021/03/01 02:51:16;;;;;;;25.58;14.07;;;;;;;4.20;100.00;102676.78;5144447;28;20324;-77
2021/03/01 02:53:47;;;;;;;24.20;13.60;;;;;;;4.32;100.00;102678.78;5144144;28;20026;-78
2021/03/01 02:56:19;;;;;;;22.05;13.68;;;;;;;4.28;100.00;102670.06;5143740;28;20037;-77
2021/03/01 02:58:51;;;;;;;26.85;15.32;;;;;;;4.22;100.00;102669.94;5143850;28;20369;-78
2021/03/01 03:01:22;;;;;;;23.20;14.10;;;;;;;4.20;100.00;102676.78;5139194;28;20082;-77
2021/03/01 03:03:54;;;;;;;25.73;15.45;;;;;;;4.22;100.00;102676.81;5142504;28;20014;-78
2021/03/01 03:06:29;;;;;;;26.30;14.95;;;;;;;4.37;100.00;102684.94;5143212;28;20023;-78
2021/03/01 03:09:00;;;;;;;24.67;14.13;;;;;;;4.59;100.00;102682.00;5142525;28;20026;-78
2021/03/01 03:11:31;;;;;;;22.15;13.35;;;;;;;4.31;100.00;102692.56;5153389;28;20019;-77
2021/03/01 03:14:03;;;;;;;23.67;13.43;;;;;;;4.47;100.00;102687.78;5144865;28;20539;-77
2021/03/01 03:16:34;;;;;;;24.15;13.05;;;;;;;4.39;100.00;102689.31;5143855;28;20030;-78
2021/03/01 03:19:05;;;;;;;29.48;13.48;;;;;;;4.38;100.00;102692.75;5142991;28;20112;-77
2021/03/01 03:21:35;;;;;;;24.80;13.35;;;;;;;4.22;100.00;102700.09;5155897;28;20026;-78
2021/03/01 03:24:06;;;;;;;22.15;13.57;;;;;;;4.31;100.00;102692.56;5153119;28;20190;-78
2021/03/01 03:26:36;;;;;;;23.02;13.93;;;;;;;4.47;100.00;102692.94;5143041;28;20302;-77
2021/03/01 03:29:08;;;;;;;22.42;13.23;;;;;;;4.43;100.00;102693.72;5143207;28;20413;-77
2021/03/01 03:31:38;;;;;;;25.83;14.23;;;;;;;4.47;100.00;102695.53;5143369;28;20027;-78
2021/03/01 03:34:09;;;;;;;25.52;14.57;;;;;;;4.45;100.00;102699.81;5148775;28;20093;-78
2021/03/01 03:36:43;;;;;;;26.80;14.95;;;;;;;4.44;100.00;102704.97;5153308;28;20038;-77
2021/03/01 03:39:16;;;;;;;26.37;14.43;;;;;;;4.50;100.00;102698.19;5152083;28;20500;-78
2021/03/01 03:41:48;;;;;;;23.92;14.55;;;;;;;4.54;100.00;102696.56;5154054;28;20273;-78
2021/03/01 03:44:19;;;;;;;23.08;14.48;;;;;;;4.41;100.00;102698.00;5149583;28;20442;-77
2021/03/01 03:46:51;;;;;;;27.45;15.52;;;;;;;4.31;100.00;102695.16;5143506;28;20035;-77
2021/03/01 03:49:23;;;;;;;27.77;15.30;;;;;;;4.37;100.00;102703.06;5142956;28;20404;-77
2021/03/01 03:51:56;;;;;;;28.98;15.85;;;;;;;4.27;100.00;102695.94;5144177;28;20027;-77
2021/03/01 03:54:30;;;;;;;29.35;15.40;;;;;;;4.26;100.00;102692.47;5143094;28;20096;-77
2021/03/01 03:57:04;;;;;;;30.73;16.60;;;;;;;4.40;100.00;102696.25;5144171;28;20382;-78
2021/03/01 03:59:39;;;;;;;25.75;15.15;;;;;;;4.44;100.00;102703.25;5143308;28;20053;-77
2021/03/01 04:02:10;;;;;;;26.60;15.32;;;;;;;4.69;100.00;102696.91;5147031;28;20038;-78
2021/03/01 04:04:43;;;;;;;29.20;16.25;;;;;;;4.66;100.00;102697.69;5150112;28;20412;-77
2021/03/01 04:07:14;;;;;;;29.35;16.08;;;;;;;4.85;100.00;102697.28;5141186;28;20419;-77
2021/03/01 04:09:46;;;;;;;25.52;15.30;;;;;;;4.73;100.00;102696.13;5142090;28;20062;-78
2021/03/01 04:12:17;;;;;;;27.30;16.15;;;;;;;4.86;100.00;102693.84;5156621;28;20097;-77
2021/03/01 04:14:49;;;;;;;26.13;15.25;;;;;;;4.77;100.00;102696.22;5145544;28;20026;-78
2021/03/01 04:17:21;;;;;;;29.67;15.27;;;;;;;4.43;100.00;102690.28;5144030;28;20550;-77
2021/03/01 04:19:52;;;;;;;28.10;15.65;;;;;;;4.21;100.00;102693.19;5141358;28;20042;-77
2021/03/01 04:22:25;;;;;;;27.10;16.48;;;;;;;4.23;100.00;102697.56;5143586;28;20023;-78
2021/03/01 04:24:56;;;;;;;31.25;17.17;;;;;;;4.21;100.00;102696.66;5143502;28;20023;-78
2021/03/01 04:27:27;;;;;;;26.25;16.27;;;;;;;4.20;100.00;102696.59;5141715;28;20078;-78
2021/03/01 04:29:59;;;;;;;29.83;16.52;;;;;;;4.08;100.00;102691.13;5143437;28;20031;-78
2021/03/01 04:32:30;;;;;;;33.38;17.70;;;;;;;3.99;100.00;102691.78;5145520;28;20469;-78
2021/03/01 04:35:03;;;;;;;31.88;17.15;;;;;;;3.95;100.00;102687.38;5146018;28;20030;-78
2021/03/01 04:37:34;;;;;;;31.55;16.95;;;;;;;4.01;100.00;102689.25;5146684;28;20573;-77
2021/03/01 04:40:05;;;;;;;35.28;17.80;;;;;;;3.93;100.00;102691.63;5147449;28;20101;-77
2021/03/01 04:42:37;;;;;;;30.92;17.00;;;;;;;3.95;100.00;102689.97;5159713;28;20026;-77
2021/03/01 04:45:08;;;;;;;33.83;17.40;;;;;;;3.95;100.00;102689.97;5145688;28;20027;-78
2021/03/01 04:47:41;;;;;;;34.60;17.92;;;;;;;3.92;100.00;102691.63;5146894;28;20030;-77
2021/03/01 04:50:14;;;;;;;33.47;18.85;;;;;;;3.97;100.00;102698.63;5145898;28;20447;-77
2021/03/01 04:52:45;;;;;;;33.63;18.55;;;;;;;4.00;100.00;102696.16;5144630;28;20122;-77
2021/03/01 04:55:16;;;;;;;32.72;17.67;;;;;;;4.10;100.00;102692.94;5148255;28;20022;-77
2021/03/01 04:57:47;;;;;;;30.58;17.40;;;;;;;4.11;100.00;102694.66;5144205;28;20052;-78
2021/03/01 05:00:18;;;;;;;37.08;18.40;;;;;;;4.12;100.00;102687.81;5135751;28;20035;-78
2021/03/01 05:02:50;;;;;;;31.67;17.50;;;;;;;4.03;100.00;102692.75;5139023;28;20034;-78
2021/03/01 05:05:20;;;;;;;33.67;17.52;;;;;;;3.95;100.00;102692.53;5147744;28;20030;-78
2021/03/01 05:07:55;;;;;;;30.25;17.25;;;;;;;4.04;100.00;102695.38;5155085;28;20034;-78
2021/03/01 05:10:26;;;;;;;33.60;17.53;;;;;;;4.14;100.00;102686.13;5138389;28;20098;-78
2021/03/01 05:12:56;;;;;;;32.17;17.33;;;;;;;4.20;100.00;102696.59;5149062;28;20031;-78
2021/03/01 05:15:27;;;;;;;31.55;17.17;;;;;;;4.16;100.00;102695.66;5143602;28;20030;-78
2021/03/01 05:17:58;;;;;;;29.13;16.95;;;;;;;4.17;100.00;102692.25;5143575;28;20037;-78
2021/03/01 05:20:28;;;;;;;35.20;18.83;;;;;;;4.18;100.00;102688.84;5141515;28;20365;-77
2021/03/01 05:22:58;;;;;;;32.92;18.13;;;;;;;4.14;100.00;102686.97;5151027;28;20028;-78
2021/03/01 05:25:28;;;;;;;31.23;17.65;;;;;;;4.23;100.00;102689.81;5149662;28;20019;-78
2021/03/01 05:27:59;;;;;;;28.40;16.25;;;;;;;4.57;100.00;102694.91;5142856;28;20027;-78
2021/03/01 05:30:30;;;;;;;27.15;16.17;;;;;;;4.57;100.00;102694.03;5147572;28;20034;-78
2021/03/01 05:33:01;;;;;;;26.83;16.20;;;;;;;4.51;100.00;102699.97;5157611;28;20130;-78
2021/03/01 05:35:31;;;;;;;28.55;15.90;;;;;;;4.66;100.00;102692.53;5147244;28;20031;-78
2021/03/01 05:38:01;;;;;;;28.27;15.80;;;;;;;4.51;100.00;102689.63;5143974;28;20026;-78
2021/03/01 05:40:31;;;;;;;30.35;17.25;;;;;;;4.36;100.00;102690.97;5151371;28;20030;-78
2021/03/01 05:43:02;;;;;;;29.25;16.92;;;;;;;4.24;100.00;102694.13;5158556;28;20535;-78
2021/03/01 05:45:33;;;;;;;29.98;17.05;;;;;;;4.23;100.00;102697.56;5142625;28;20030;-78
2021/03/01 05:48:09;;;;;;;33.35;17.90;;;;;;;4.29;100.00;102697.69;5142929;28;20038;-78
2021/03/01 05:50:41;;;;;;;31.80;17.45;;;;;;;4.22;100.00;102701.00;5141094;28;20039;-78
2021/03/01 05:53:20;;;;;;;30.40;16.95;;;;;;;4.26;100.00;102697.63;5149845;28;20118;-78
2021/03/01 05:55:50;;;;;;;32.03;17.02;;;;;;;4.24;100.00;102694.13;5146310;28;20153;-78
2021/03/01 05:58:21;;;;;;;30.42;16.75;;;;;;;4.49;100.00;102693.84;5134981;28;20098;-78
2021/03/01 06:01:03;;;;;;;30.15;16.83;;;;;;;4.40;100.00;102685.91;5141453;28;20035;-77
2021/03/01 06:03:35;;;;;;;34.80;17.63;;;;;;;4.22;100.00;102690.66;5134397;28;20023;-78
2021/03/01 06:06:05;;;;;;;34.88;18.20;;;;;;;4.34;100.00;102690.06;5140617;28;20671;-78
2021/03/01 06:08:36;;;;;;;30.95;16.77;;;;;;;4.34;100.00;102690.94;5145574;28;20058;-78
2021/03/01 06:11:08;;;;;;;30.05;17.00;;;;;;;4.28;100.00;102693.38;5139837;28;20030;-79
2021/03/01 06:13:38;;;;;;;33.72;17.67;;;;;;;4.21;100.00;102694.06;5149740;28;20073;-78
2021/03/01 06:16:09;;;;;;;32.35;17.65;;;;;;;4.40;100.00;102700.53;5142368;28;20049;-78
2021/03/01 06:18:46;;;;;;;30.35;17.23;;;;;;;4.36;100.00;102699.63;5139372;28;20078;-78
2021/03/01 06:21:18;;;;;;;31.17;17.17;;;;;;;4.22;100.00;102703.59;5137760;28;20046;-78
2021/03/01 06:23:50;;;;;;;33.22;17.70;;;;;;;4.30;100.00;102698.59;5137768;28;20029;-78
2021/03/01 06:26:23;;;;;;;28.10;14.60;;;;;;;4.19;100.00;102706.09;5140669;28;20022;-78
2021/03/01 06:29:15;;;;;;;24.20;13.23;;;;;;;4.40;100.00;102706.59;5140339;28;20026;-78
2021/03/01 06:31:48;;;;;;;25.80;13.68;;;;;;;4.51;100.00;102704.25;5143187;28;20042;-78
2021/03/01 06:34:25;;;;;;;24.08;13.57;;;;;;;4.51;100.00;102709.44;5132022;28;20106;-78
2021/03/01 06:37:16;;;;;;;29.08;15.48;;;;;;;4.65;100.00;102708.03;5133205;28;20278;-78
2021/03/01 06:39:51;;;;;;;26.90;15.90;;;;;;;4.60;100.00;102712.25;5147745;28;20355;-78
2021/03/01 06:42:30;;;;;;;31.55;16.52;;;;;;;4.47;100.00;102716.25;5149550;28;20534;-78
2021/03/01 06:45:00;;;;;;;29.95;16.02;;;;;;;4.45;100.00;102720.50;5124976;28;20058;-78
2021/03/01 06:47:51;;;;;;;22.83;13.13;;;;;;;4.54;100.00;102719.84;5124421;28;20524;-78
2021/03/01 06:50:33;;;;;;;21.42;12.10;;;;;;;4.48;100.00;102714.56;5131722;28;20034;-78
2021/03/01 06:53:14;;;;;;;21.67;12.25;;;;;;;4.58;100.00;102727.75;5138933;28;20631;-78
2021/03/01 06:55:57;;;;;;;17.50;11.43;;;;;;;4.78;100.00;102721.28;5141141;28;20042;-78
2021/03/01 06:58:48;;;;;;;18.67;10.50;;;;;;;4.62;100.00;102718.34;5143888;28;20468;-78
2021/03/01 07:01:20;;;;;;;20.88;11.52;;;;;;;4.74;100.00;102716.88;5155271;28;20310;-78
2021/03/01 07:03:51;;;;;;;20.42;10.40;;;;;;;4.80;100.00;102718.75;5161096;28;20505;-78
2021/03/01 07:06:21;;;;;;;16.65;9.48;;;;;;;4.84;100.00;102711.03;5160803;28;20073;-78
2021/03/01 07:08:53;;;;;;;18.65;10.07;;;;;;;4.89;100.00;102711.16;5161085;28;20034;-78
2021/03/01 07:11:32;;;;;;;17.98;10.00;;;;;;;4.90;100.00;102731.03;5155421;28;20632;-78
2021/03/01 07:14:05;;;;;;;18.73;9.55;;;;;;;4.82;100.00;102730.00;5142539;28;20034;-78
2021/03/01 07:16:41;;;;;;;17.00;9.30;;;;;;;4.93;100.00;102737.16;5140809;28;20489;-78
2021/03/01 07:19:19;;;;;;;18.35;9.50;;;;;;;4.78;100.00;102730.78;5139218;28;20607;-79
2021/03/01 07:21:52;;;;;;;17.88;9.55;;;;;;;4.76;99.80;102728.16;5140648;28;20515;-78
2021/03/01 07:24:24;;;;;;;18.70;9.73;;;;;;;4.80;99.25;102742.91;5140745;28;20034;-78
2021/03/01 07:26:57;;;;;;;15.15;9.60;;;;;;;4.59;98.64;102737.25;5129820;28;20069;-78
2021/03/01 07:29:31;;;;;;;19.13;9.40;;;;;;;4.83;98.42;102737.78;5138122;28;20042;-77
2021/03/01 07:32:04;;;;;;;15.55;9.68;;;;;;;4.84;98.81;102733.50;5155008;28;20032;-77
2021/03/01 07:34:36;;;;;;;18.27;10.07;;;;;;;4.92;98.74;102734.53;5160305;28;20035;-77
2021/03/01 07:37:06;;;;;;;19.77;10.45;;;;;;;4.92;100.00;102725.06;5161095;28;20026;-77
2021/03/01 07:39:37;;;;;;;19.25;9.82;;;;;;;5.09;100.00;102722.81;5160396;28;20041;-77
2021/03/01 07:42:11;;;;;;;16.48;9.52;;;;;;;5.22;99.06;102725.72;5152934;28;20022;-77
2021/03/01 07:44:44;;;;;;;18.33;10.48;;;;;;;5.32;98.98;102717.25;5148788;28;20637;-77
2021/03/01 07:47:15;;;;;;;21.17;11.02;;;;;;;5.13;100.00;102720.31;5146665;28;20238;-78
2021/03/01 07:49:49;;;;;;;18.33;9.77;;;;;;;5.13;100.00;102722.91;5146669;28;20104;-77
2021/03/01 07:52:19;;;;;;;20.08;9.82;;;;;;;5.12;99.89;102731.53;5146002;28;20031;-78
2021/03/01 07:55:02;;;;;;;15.90;9.77;;;;;;;5.33;98.79;102734.56;5146576;28;20023;-78
2021/03/01 07:57:36;;;;;;;18.10;10.63;;;;;;;5.18;98.69;102734.25;5135620;28;20387;-78
2021/03/01 08:00:29;;;;;;;20.05;10.20;;;;;;;5.12;99.51;102734.13;5151435;28;20026;-78
2021/03/01 08:03:37;;;;;;;20.17;11.48;;;;;;;5.05;99.07;102737.44;5160708;28;20117;-78
2021/03/01 08:06:07;;;;;;;23.83;11.57;;;;;;;5.19;98.28;102735.97;5146473;28;20082;-77
2021/03/01 08:08:45;;;;;;;20.58;12.27;;;;;;;4.83;98.84;102745.56;5150198;28;20134;-78
2021/03/01 08:11:37;;;;;;;19.88;11.77;;;;;;;4.78;98.53;102747.19;5157830;28;20026;-77
2021/03/01 08:14:30;;;;;;;23.00;12.23;;;;;;;4.99;100.00;102751.97;5151590;28;20049;-78
2021/03/01 08:17:26;;;;;;;21.45;11.55;;;;;;;5.24;98.51;102749.94;5141224;28;20492;-77
2021/03/01 08:19:59;;;;;;;19.25;11.00;;;;;;;5.29;96.15;102753.50;5139831;28;20030;-77
2021/03/01 08:22:29;;;;;;;22.02;12.30;;;;;;;5.33;97.50;102755.28;5149842;28;20035;-78
2021/03/01 08:25:00;;;;;;;25.40;13.27;;;;;;;5.47;97.53;102753.84;5149923;28;20033;-78
2021/03/01 08:27:30;;;;;;;22.13;11.93;;;;;;;5.26;96.65;102753.44;5148825;28;20038;-78
2021/03/01 08:30:16;;;;;;;21.48;12.35;;;;;;;5.28;96.23;102762.13;5216178;23;20046;-80
2021/03/01 08:33:08;;;;;;;20.27;12.13;;;;;;;5.20;95.24;102773.16;5194875;28;20029;-81
2021/03/01 08:35:40;;;;;;;21.40;11.75;;;;;;;5.15;93.96;102762.69;5194339;28;20033;-81
2021/03/01 08:38:13;;;;;;;20.73;12.00;;;;;;;5.33;93.83;102763.06;5211112;28;20535;-80
2021/03/01 08:40:54;;;;;;;19.65;11.27;;;;;;;5.28;93.65;102776.78;5176702;28;20037;-81
2021/03/01 08:43:44;;;;;;;20.92;12.18;;;;;;;5.32;92.81;102778.63;5170188;28;20403;-81
2021/03/01 08:46:15;;;;;;;19.95;12.40;;;;;;;5.18;94.52;102775.72;5170732;28;20403;-81
2021/03/01 08:48:47;;;;;;;26.90;13.47;;;;;;;5.15;94.74;102786.03;5171014;28;20030;-81
2021/03/01 08:51:19;;;;;;;22.00;12.27;;;;;;;5.35;94.77;102787.31;5154598;28;20390;-80
2021/03/01 08:53:54;;;;;;;20.88;12.73;;;;;;;5.37;95.65;102779.56;5171423;28;20022;-81
2021/03/01 08:56:26;;;;;;;22.70;12.40;;;;;;;5.28;93.61;102777.66;5171347;28;20118;-80
2021/03/01 08:58:56;;;;;;;19.27;12.20;;;;;;;5.48;92.95;102779.84;5153574;28;20277;-81
2021/03/01 09:01:26;;;;;;;21.10;12.63;;;;;;;5.58;92.24;102775.72;5171324;28;20058;-81
2021/03/01 09:03:57;;;;;;;24.30;13.07;;;;;;;5.42;93.82;102781.44;5169652;28;20047;-81
2021/03/01 09:06:27;;;;;;;22.20;12.88;;;;;;;5.17;94.27;102784.31;5190689;28;20111;-81
2021/03/01 09:08:58;;;;;;;22.88;12.85;;;;;;;5.04;95.84;102773.69;5187573;28;20029;-81
2021/03/01 09:11:30;;;;;;;21.83;12.93;;;;;;;5.07;95.96;102779.81;5190370;28;20156;-81
2021/03/01 09:14:03;;;;;;;24.25;13.45;;;;;;;5.21;94.57;102785.28;5193600;28;20026;-80
2021/03/01 09:16:37;;;;;;;27.90;13.73;;;;;;;5.10;95.50;102777.28;5189864;28;20499;-81
2021/03/01 09:19:12;;;;;;;21.42;13.13;;;;;;;5.10;95.30;102774.69;5189597;28;20022;-81
2021/03/01 09:21:43;;;;;;;21.45;12.80;;;;;;;5.46;91.73;102778.94;5187296;28;20273;-81
2021/03/01 09:24:14;;;;;;;21.60;13.30;;;;;;;5.59;92.61;102775.72;5191370;28;20053;-81
2021/03/01 09:26:45;;;;;;;20.95;13.50;;;;;;;5.77;93.32;102780.41;5189501;28;20090;-81
2021/03/01 09:29:18;;;;;;;22.35;12.73;;;;;;;5.83;93.69;102778.84;5190712;28;20036;-81
2021/03/01 09:31:53;;;;;;;20.65;12.70;;;;;;;6.03;92.97;102784.38;5188853;28;20030;-81
2021/03/01 09:34:27;;;;;;;22.83;13.07;;;;;;;6.14;93.62;102775.97;5189936;28;20022;-80
2021/03/01 09:36:57;;;;;;;23.38;13.20;;;;;;;6.21;93.94;102784.69;5190417;28;20034;-81
2021/03/01 09:39:29;;;;;;;21.60;12.82;;;;;;;6.06;91.71;102777.53;5198099;28;20025;-81
2021/03/01 09:42:00;;;;;;;19.38;12.10;;;;;;;6.13;91.01;102771.63;5192877;28;20106;-81
2021/03/01 09:44:34;;;;;;;19.10;11.77;;;;;;;6.15;90.88;102763.84;5172695;28;20262;-81
2021/03/01 09:47:08;;;;;;;19.45;12.23;;;;;;;6.33;91.64;102770.22;5189757;28;20152;-81
2021/03/01 09:49:41;;;;;;;20.67;11.48;;;;;;;6.29;92.08;102768.41;5205443;28;20522;-81
2021/03/01 09:52:11;;;;;;;19.17;11.88;;;;;;;6.06;91.10;102766.28;5173519;28;20061;-81
2021/03/01 09:54:42;;;;;;;20.90;11.75;;;;;;;6.12;90.58;102761.19;5173491;28;20029;-81
2021/03/01 09:57:12;;;;;;;18.50;10.70;;;;;;;6.14;92.75;102775.97;5201202;28;20033;-81
2021/03/01 09:59:43;;;;;;;17.00;10.63;;;;;;;6.27;91.90;102769.25;5186027;28;20121;-81
2021/03/01 10:02:16;;;;;;;17.83;10.00;;;;;;;6.01;90.25;102771.38;5191335;28;20072;-80
2021/03/01 10:04:47;;;;;;;18.50;9.75;;;;;;;6.18;91.65;102769.06;5182689;28;20539;-81
2021/03/01 10:07:23;;;;;;;15.85;9.85;;;;;;;6.11;90.48;102769.81;5189464;28;20049;-81
2021/03/01 10:09:54;;;;;;;;;;;;;;;6.30;92.60;102759.78;5205337;28;20076;-81
2021/03/01 10:12:26;;;;;;;18.83;9.77;;;;;;;6.46;91.24;102766.09;5190163;28;19909;-80
2021/03/01 10:14:58;;;;;;;19.00;9.93;;;;;;;6.73;90.35;102771.75;5204577;28;20403;-80
2021/03/01 10:17:30;;;;;;;14.32;9.30;;;;;;;6.64;90.20;102771.59;5171444;28;20041;-81
2021/03/01 10:20:09;;;;;;;19.38;9.60;;;;;;;6.55;89.44;102763.63;5170907;28;20117;-80
2021/03/01 10:23:03;;;;;;;16.83;9.77;;;;;;;6.65;91.86;102762.94;5171832;28;20064;-81
2021/03/01 10:25:37;;;;;;;20.17;10.23;;;;;;;6.79;91.68;102759.69;5171429;28;20374;-81
2021/03/01 10:28:33;;;;;;;17.08;9.68;;;;;;;6.88;89.06;102766.72;5195495;28;20032;-81
2021/03/01 10:31:06;;;;;;;16.58;9.68;;;;;;;6.57;87.59;102765.41;5178491;28;20091;-81
2021/03/01 10:34:00;;;;;;;18.45;9.73;;;;;;;6.77;88.54;102768.31;5179664;28;20056;-81
2021/03/01 10:36:48;;;;;;;17.48;10.25;;;;;;;6.38;90.21;102749.50;5187431;28;20097;-81
2021/03/01 10:39:18;;;;;;;15.82;9.57;;;;;;;6.42;88.36;102764.31;5189834;28;20014;-81
2021/03/01 10:41:55;;;;;;;16.23;10.02;;;;;;;6.44;88.01;102763.47;5190737;28;20394;-81
2021/03/01 10:44:32;;;;;;;19.15;10.73;;;;;;;6.75;87.82;102762.25;5175821;28;20507;-81
2021/03/01 10:47:18;;;;;;;17.75;10.50;;;;;;;6.99;91.10;102768.66;5171736;28;20026;-81
2021/03/01 10:49:53;;;;;;;16.98;9.98;;;;;;;7.01;89.46;102766.94;5189246;28;20526;-81
2021/03/01 10:52:25;;;;;;;18.48;10.38;;;;;;;6.80;88.69;102758.81;5170180;28;20277;-81
2021/03/01 10:54:58;;;;;;;15.90;10.02;;;;;;;6.68;88.86;102755.19;5169761;28;20085;-81
2021/03/01 10:57:28;;;;;;;17.67;10.98;;;;;;;6.79;89.84;102756.22;5187239;28;20499;-80
2021/03/01 10:59:59;;;;;;;19.02;11.43;;;;;;;7.14;92.21;102753.25;5170116;28;20428;-81
2021/03/01 11:02:30;;;;;;;17.40;10.38;;;;;;;7.32;89.03;102756.97;5188514;28;20025;-81
2021/03/01 11:05:00;;;;;;;20.13;10.07;;;;;;;7.45;86.27;102758.88;5202972;28;20022;-80
2021/03/01 11:07:30;;;;;;;17.40;10.38;;;;;;;6.92;88.55;102753.81;5170255;28;20506;-80
2021/03/01 11:10:01;;;;;;;18.80;10.63;;;;;;;6.93;89.86;102755.56;5170643;28;20021;-81
2021/03/01 11:12:31;;;;;;;18.10;10.05;;;;;;;7.22;87.35;102754.22;5188269;28;20029;-81
2021/03/01 11:15:01;;;;;;;18.02;10.50;;;;;;;7.22;90.28;102751.63;5168074;28;20033;-81
2021/03/01 11:17:32;;;;;;;22.75;11.65;;;;;;;6.79;89.46;102743.22;5167608;28;20046;-81
2021/03/01 11:20:02;;;;;;;20.48;10.73;;;;;;;7.17;89.74;102745.50;5150436;28;20030;-81
2021/03/01 11:22:33;;;;;;;18.20;10.77;;;;;;;7.33;89.23;102750.91;5149230;28;20086;-81
2021/03/01 11:25:03;;;;;;;16.95;10.15;;;;;;;7.25;87.15;102743.00;5158436;28;20017;-80
2021/03/01 11:27:34;;;;;;;19.55;11.27;;;;;;;7.37;88.99;102734.47;5176054;28;20032;-80
2021/03/01 11:30:05;;;;;;;18.08;10.93;;;;;;;7.69;89.00;102727.91;5187526;28;20045;-81
2021/03/01 11:32:35;;;;;;;17.95;10.20;;;;;;;7.76;87.53;102727.13;5169455;28;20178;-81
2021/03/01 11:35:05;;;;;;;18.40;10.77;;;;;;;7.70;89.20;102727.03;5169029;28;20387;-81
2021/03/01 11:37:36;;;;;;;20.40;10.32;;;;;;;7.70;87.92;102728.78;5169799;28;20072;-81
2021/03/01 11:40:07;;;;;;;16.80;10.65;;;;;;;7.64;87.54;102726.09;5173058;28;20033;-81
2021/03/01 11:42:38;;;;;;;19.02;11.02;;;;;;;7.75;87.90;102709.78;5186434;28;20133;-80
2021/03/01 11:45:09;;;;;;;18.17;10.88;;;;;;;7.84;87.80;102715.06;5191173;28;20659;-81